<?xml version="1.0" encoding="UTF-8" standalone="no" ?>
<gpx xmlns="http://www.topografix.com/GPX/1/1" xmlns:xsi="http://www.w3.org/2001/XMLSchema-instance" xsi:schemaLocation="http://www.topografix.com/GPX/1/1 http://www.topografix.com/GPX/1/1/gpx.xsd" version="1.1" creator="VisuGPX - https://www.visugpx.com">
  <metadata>
    <name>Rando LN</name>
  </metadata>
  <trk>
    <name><![CDATA[Ste-Foy-la-grande]]></name>
    <extensions>
      <line xmlns="http://www.topografix.com/GPX/gpx_style/0/2">
        <color>ff000d</color>
        <width>4</width>
      </line>
    </extensions>
    <trkseg>
      <trkpt lat="44.74371" lon="0.07548">
        <ele>98.373</ele>
        <time>2019-04-11T19:15:21Z</time>
      </trkpt>
      <trkpt lat="44.74371" lon="0.07548">
        <ele>98.373</ele>
        <time>2019-04-11T19:15:21Z</time>
      </trkpt>
      <trkpt lat="44.74371" lon="0.07548">
        <ele>98.373</ele>
        <time>2019-04-11T19:15:21Z</time>
      </trkpt>
      <trkpt lat="44.74371" lon="0.07548">
        <ele>98.373</ele>
        <time>2019-04-11T19:15:21Z</time>
      </trkpt>
      <trkpt lat="44.74371" lon="0.07548">
        <ele>98.373</ele>
        <time>2019-04-11T19:15:21Z</time>
      </trkpt>
      <trkpt lat="44.74371" lon="0.07548">
        <ele>98.373</ele>
        <time>2019-04-11T19:15:21Z</time>
      </trkpt>
      <trkpt lat="44.74371" lon="0.07548">
        <ele>98.373</ele>
        <time>2019-04-11T19:15:21Z</time>
      </trkpt>
      <trkpt lat="44.74371" lon="0.07548">
        <ele>98.373</ele>
        <time>2019-04-11T19:15:21Z</time>
      </trkpt>
      <trkpt lat="44.74371" lon="0.07548">
        <ele>98.373</ele>
        <time>2019-04-11T19:15:21Z</time>
      </trkpt>
      <trkpt lat="44.74371" lon="0.07548">
        <ele>98.373</ele>
        <time>2019-04-11T19:15:21Z</time>
      </trkpt>
      <trkpt lat="44.74381" lon="0.07537">
        <ele>97.692</ele>
        <time>2019-04-11T19:15:01Z</time>
      </trkpt>
      <trkpt lat="44.74548" lon="0.07605">
        <ele>86.452</ele>
        <time>2019-04-11T19:14:41Z</time>
      </trkpt>
      <trkpt lat="44.74718" lon="0.07715">
        <ele>98.734</ele>
        <time>2019-04-11T19:14:21Z</time>
      </trkpt>
      <trkpt lat="44.74923" lon="0.07813">
        <ele>107.819</ele>
        <time>2019-04-11T19:14:01Z</time>
      </trkpt>
      <trkpt lat="44.7503" lon="0.07873">
        <ele>109.864</ele>
        <time>2019-04-11T19:13:41Z</time>
      </trkpt>
      <trkpt lat="44.75092" lon="0.07889">
        <ele>107.773</ele>
        <time>2019-04-11T19:13:21Z</time>
      </trkpt>
      <trkpt lat="44.75219" lon="0.07969">
        <ele>101.114</ele>
        <time>2019-04-11T19:13:01Z</time>
      </trkpt>
      <trkpt lat="44.75408" lon="0.08053">
        <ele>85.148</ele>
        <time>2019-04-11T19:12:41Z</time>
      </trkpt>
      <trkpt lat="44.75519" lon="0.08226">
        <ele>78.166</ele>
        <time>2019-04-11T19:12:21Z</time>
      </trkpt>
      <trkpt lat="44.75615" lon="0.08322">
        <ele>75.608</ele>
        <time>2019-04-11T19:12:01Z</time>
      </trkpt>
      <trkpt lat="44.75708" lon="0.08336">
        <ele>73.221</ele>
        <time>2019-04-11T19:11:41Z</time>
      </trkpt>
      <trkpt lat="44.76016" lon="0.08518">
        <ele>62.801</ele>
        <time>2019-04-11T19:11:21Z</time>
      </trkpt>
      <trkpt lat="44.76055" lon="0.08514">
        <ele>65.139</ele>
        <time>2019-04-11T19:11:01Z</time>
      </trkpt>
      <trkpt lat="44.76113" lon="0.08406">
        <ele>62.993</ele>
        <time>2019-04-11T19:10:41Z</time>
      </trkpt>
      <trkpt lat="44.76144" lon="0.08398">
        <ele>64.425</ele>
        <time>2019-04-11T19:10:21Z</time>
      </trkpt>
      <trkpt lat="44.76306" lon="0.08582">
        <ele>77.89</ele>
        <time>2019-04-11T19:10:01Z</time>
      </trkpt>
      <trkpt lat="44.76229" lon="0.08587">
        <ele>79.165</ele>
        <time>2019-04-11T19:09:41Z</time>
      </trkpt>
      <trkpt lat="44.7614" lon="0.08649">
        <ele>76.194</ele>
        <time>2019-04-11T19:09:21Z</time>
      </trkpt>
      <trkpt lat="44.76034" lon="0.08783">
        <ele>79.035</ele>
        <time>2019-04-11T19:09:01Z</time>
      </trkpt>
      <trkpt lat="44.76032" lon="0.08822">
        <ele>79.659</ele>
        <time>2019-04-11T19:08:41Z</time>
      </trkpt>
      <trkpt lat="44.76076" lon="0.08996">
        <ele>87.027</ele>
        <time>2019-04-11T19:08:21Z</time>
      </trkpt>
      <trkpt lat="44.76043" lon="0.0922">
        <ele>84.508</ele>
        <time>2019-04-11T19:08:01Z</time>
      </trkpt>
      <trkpt lat="44.76067" lon="0.09332">
        <ele>89.015</ele>
        <time>2019-04-11T19:07:41Z</time>
      </trkpt>
      <trkpt lat="44.76151" lon="0.09547">
        <ele>98.905</ele>
        <time>2019-04-11T19:07:21Z</time>
      </trkpt>
      <trkpt lat="44.76224" lon="0.10089">
        <ele>106.844</ele>
        <time>2019-04-11T19:07:01Z</time>
      </trkpt>
      <trkpt lat="44.76307" lon="0.10292">
        <ele>106.24</ele>
        <time>2019-04-11T19:06:41Z</time>
      </trkpt>
      <trkpt lat="44.7632" lon="0.10481">
        <ele>105.732</ele>
        <time>2019-04-11T19:06:21Z</time>
      </trkpt>
      <trkpt lat="44.76373" lon="0.10649">
        <ele>105.367</ele>
        <time>2019-04-11T19:06:01Z</time>
      </trkpt>
      <trkpt lat="44.76431" lon="0.10713">
        <ele>104.872</ele>
        <time>2019-04-11T19:05:41Z</time>
      </trkpt>
      <trkpt lat="44.7664" lon="0.11068">
        <ele>101.991</ele>
        <time>2019-04-11T19:05:21Z</time>
      </trkpt>
      <trkpt lat="44.76708" lon="0.11245">
        <ele>99.682</ele>
        <time>2019-04-11T19:05:01Z</time>
      </trkpt>
      <trkpt lat="44.76771" lon="0.11335">
        <ele>100.286</ele>
        <time>2019-04-11T19:04:41Z</time>
      </trkpt>
      <trkpt lat="44.76881" lon="0.11437">
        <ele>97.064</ele>
        <time>2019-04-11T19:04:21Z</time>
      </trkpt>
      <trkpt lat="44.77043" lon="0.11643">
        <ele>95.908</ele>
        <time>2019-04-11T19:04:01Z</time>
      </trkpt>
      <trkpt lat="44.77088" lon="0.11667">
        <ele>96.011</ele>
        <time>2019-04-11T19:03:41Z</time>
      </trkpt>
      <trkpt lat="44.77125" lon="0.11701">
        <ele>96.065</ele>
        <time>2019-04-11T19:03:21Z</time>
      </trkpt>
      <trkpt lat="44.77213" lon="0.1183">
        <ele>96.215</ele>
        <time>2019-04-11T19:03:01Z</time>
      </trkpt>
      <trkpt lat="44.77275" lon="0.11966">
        <ele>96.291</ele>
        <time>2019-04-11T19:02:41Z</time>
      </trkpt>
      <trkpt lat="44.77316" lon="0.12087">
        <ele>93.593</ele>
        <time>2019-04-11T19:02:21Z</time>
      </trkpt>
      <trkpt lat="44.77441" lon="0.12174">
        <ele>89.958</ele>
        <time>2019-04-11T19:02:01Z</time>
      </trkpt>
      <trkpt lat="44.77471" lon="0.12172">
        <ele>88.343</ele>
        <time>2019-04-11T19:01:41Z</time>
      </trkpt>
      <trkpt lat="44.77582" lon="0.12089">
        <ele>81.322</ele>
        <time>2019-04-11T19:01:21Z</time>
      </trkpt>
      <trkpt lat="44.77614" lon="0.12087">
        <ele>76.363</ele>
        <time>2019-04-11T19:01:01Z</time>
      </trkpt>
      <trkpt lat="44.77625" lon="0.12129">
        <ele>74.467</ele>
        <time>2019-04-11T19:00:41Z</time>
      </trkpt>
      <trkpt lat="44.77603" lon="0.12173">
        <ele>73.125</ele>
        <time>2019-04-11T19:00:21Z</time>
      </trkpt>
      <trkpt lat="44.77605" lon="0.12206">
        <ele>72.508</ele>
        <time>2019-04-11T19:00:01Z</time>
      </trkpt>
      <trkpt lat="44.77682" lon="0.12309">
        <ele>62.608</ele>
        <time>2019-04-11T18:59:41Z</time>
      </trkpt>
      <trkpt lat="44.7765" lon="0.12622">
        <ele>59.126</ele>
        <time>2019-04-11T18:59:21Z</time>
      </trkpt>
      <trkpt lat="44.77673" lon="0.12723">
        <ele>52.725</ele>
        <time>2019-04-11T18:59:01Z</time>
      </trkpt>
      <trkpt lat="44.77733" lon="0.12835">
        <ele>54.662</ele>
        <time>2019-04-11T18:58:41Z</time>
      </trkpt>
      <trkpt lat="44.77782" lon="0.129">
        <ele>51.624</ele>
        <time>2019-04-11T18:58:21Z</time>
      </trkpt>
      <trkpt lat="44.77782" lon="0.12931">
        <ele>51.599</ele>
        <time>2019-04-11T18:58:01Z</time>
      </trkpt>
      <trkpt lat="44.7772" lon="0.12954">
        <ele>52.074</ele>
        <time>2019-04-11T18:57:41Z</time>
      </trkpt>
      <trkpt lat="44.77647" lon="0.13004">
        <ele>49.943</ele>
        <time>2019-04-11T18:57:21Z</time>
      </trkpt>
      <trkpt lat="44.77642" lon="0.13123">
        <ele>54.394</ele>
        <time>2019-04-11T18:57:01Z</time>
      </trkpt>
      <trkpt lat="44.77544" lon="0.13116">
        <ele>51.738</ele>
        <time>2019-04-11T18:56:41Z</time>
      </trkpt>
      <trkpt lat="44.77496" lon="0.13171">
        <ele>53.036</ele>
        <time>2019-04-11T18:56:21Z</time>
      </trkpt>
      <trkpt lat="44.77469" lon="0.13272">
        <ele>55.808</ele>
        <time>2019-04-11T18:56:01Z</time>
      </trkpt>
      <trkpt lat="44.77381" lon="0.13344">
        <ele>56.714</ele>
        <time>2019-04-11T18:55:41Z</time>
      </trkpt>
      <trkpt lat="44.77343" lon="0.13483">
        <ele>59.686</ele>
        <time>2019-04-11T18:55:21Z</time>
      </trkpt>
      <trkpt lat="44.7733" lon="0.13605">
        <ele>61.235</ele>
        <time>2019-04-11T18:55:01Z</time>
      </trkpt>
      <trkpt lat="44.77318" lon="0.13656">
        <ele>61.573</ele>
        <time>2019-04-11T18:54:41Z</time>
      </trkpt>
      <trkpt lat="44.77281" lon="0.13675">
        <ele>61.825</ele>
        <time>2019-04-11T18:54:21Z</time>
      </trkpt>
      <trkpt lat="44.77252" lon="0.13666">
        <ele>60.15</ele>
        <time>2019-04-11T18:54:01Z</time>
      </trkpt>
      <trkpt lat="44.7722" lon="0.13804">
        <ele>62.785</ele>
        <time>2019-04-11T18:53:41Z</time>
      </trkpt>
      <trkpt lat="44.77173" lon="0.13933">
        <ele>60.664</ele>
        <time>2019-04-11T18:53:21Z</time>
      </trkpt>
      <trkpt lat="44.77207" lon="0.13971">
        <ele>62.315</ele>
        <time>2019-04-11T18:53:01Z</time>
      </trkpt>
      <trkpt lat="44.77231" lon="0.13977">
        <ele>63.169</ele>
        <time>2019-04-11T18:52:41Z</time>
      </trkpt>
      <trkpt lat="44.7724" lon="0.13957">
        <ele>63.087</ele>
        <time>2019-04-11T18:52:21Z</time>
      </trkpt>
      <trkpt lat="44.77401" lon="0.13966">
        <ele>74.708</ele>
        <time>2019-04-11T18:52:01Z</time>
      </trkpt>
      <trkpt lat="44.77587" lon="0.13832">
        <ele>79.114</ele>
        <time>2019-04-11T18:51:41Z</time>
      </trkpt>
      <trkpt lat="44.77681" lon="0.13801">
        <ele>82.522</ele>
        <time>2019-04-11T18:51:21Z</time>
      </trkpt>
      <trkpt lat="44.77728" lon="0.13752">
        <ele>82.442</ele>
        <time>2019-04-11T18:51:01Z</time>
      </trkpt>
      <trkpt lat="44.77848" lon="0.13816">
        <ele>69.886</ele>
        <time>2019-04-11T18:50:41Z</time>
      </trkpt>
      <trkpt lat="44.77927" lon="0.13802">
        <ele>64.428</ele>
        <time>2019-04-11T18:50:21Z</time>
      </trkpt>
      <trkpt lat="44.78023" lon="0.13699">
        <ele>63.453</ele>
        <time>2019-04-11T18:50:01Z</time>
      </trkpt>
      <trkpt lat="44.78034" lon="0.13619">
        <ele>63.378</ele>
        <time>2019-04-11T18:49:41Z</time>
      </trkpt>
      <trkpt lat="44.7813" lon="0.13377">
        <ele>68.437</ele>
        <time>2019-04-11T18:49:21Z</time>
      </trkpt>
      <trkpt lat="44.78145" lon="0.13246">
        <ele>71.568</ele>
        <time>2019-04-11T18:49:01Z</time>
      </trkpt>
      <trkpt lat="44.78158" lon="0.13203">
        <ele>72.042</ele>
        <time>2019-04-11T18:48:41Z</time>
      </trkpt>
      <trkpt lat="44.78252" lon="0.13147">
        <ele>84.11</ele>
        <time>2019-04-11T18:48:21Z</time>
      </trkpt>
      <trkpt lat="44.78352" lon="0.1314">
        <ele>89.208</ele>
        <time>2019-04-11T18:48:01Z</time>
      </trkpt>
      <trkpt lat="44.78418" lon="0.13356">
        <ele>92.221</ele>
        <time>2019-04-11T18:47:41Z</time>
      </trkpt>
      <trkpt lat="44.78597" lon="0.13541">
        <ele>97.256</ele>
        <time>2019-04-11T18:47:21Z</time>
      </trkpt>
      <trkpt lat="44.78702" lon="0.13747">
        <ele>96.274</ele>
        <time>2019-04-11T18:47:01Z</time>
      </trkpt>
      <trkpt lat="44.7882" lon="0.1406">
        <ele>102.722</ele>
        <time>2019-04-11T18:46:41Z</time>
      </trkpt>
      <trkpt lat="44.78976" lon="0.1425">
        <ele>108.684</ele>
        <time>2019-04-11T18:46:21Z</time>
      </trkpt>
      <trkpt lat="44.79085" lon="0.1432">
        <ele>102.639</ele>
        <time>2019-04-11T18:46:01Z</time>
      </trkpt>
      <trkpt lat="44.79242" lon="0.14306">
        <ele>101.654</ele>
        <time>2019-04-11T18:45:41Z</time>
      </trkpt>
      <trkpt lat="44.79388" lon="0.14233">
        <ele>102.963</ele>
        <time>2019-04-11T18:45:21Z</time>
      </trkpt>
      <trkpt lat="44.79457" lon="0.14231">
        <ele>104.794</ele>
        <time>2019-04-11T18:45:01Z</time>
      </trkpt>
      <trkpt lat="44.79678" lon="0.14447">
        <ele>104.528</ele>
        <time>2019-04-11T18:44:41Z</time>
      </trkpt>
      <trkpt lat="44.7975" lon="0.1456">
        <ele>109.576</ele>
        <time>2019-04-11T18:44:21Z</time>
      </trkpt>
      <trkpt lat="44.7976" lon="0.14639">
        <ele>107.808</ele>
        <time>2019-04-11T18:44:01Z</time>
      </trkpt>
      <trkpt lat="44.80103" lon="0.15066">
        <ele>94.211</ele>
        <time>2019-04-11T18:43:41Z</time>
      </trkpt>
      <trkpt lat="44.80252" lon="0.15198">
        <ele>91.892</ele>
        <time>2019-04-11T18:43:21Z</time>
      </trkpt>
      <trkpt lat="44.80346" lon="0.15268">
        <ele>91.332</ele>
        <time>2019-04-11T18:43:01Z</time>
      </trkpt>
      <trkpt lat="44.80414" lon="0.15333">
        <ele>90.152</ele>
        <time>2019-04-11T18:42:41Z</time>
      </trkpt>
      <trkpt lat="44.80483" lon="0.15374">
        <ele>90.284</ele>
        <time>2019-04-11T18:42:21Z</time>
      </trkpt>
      <trkpt lat="44.80465" lon="0.15444">
        <ele>90.199</ele>
        <time>2019-04-11T18:42:01Z</time>
      </trkpt>
      <trkpt lat="44.80454" lon="0.15615">
        <ele>79.814</ele>
        <time>2019-04-11T18:41:41Z</time>
      </trkpt>
      <trkpt lat="44.8047" lon="0.15676">
        <ele>76.053</ele>
        <time>2019-04-11T18:41:21Z</time>
      </trkpt>
      <trkpt lat="44.8046" lon="0.15896">
        <ele>70.984</ele>
        <time>2019-04-11T18:41:01Z</time>
      </trkpt>
      <trkpt lat="44.80438" lon="0.16047">
        <ele>67.828</ele>
        <time>2019-04-11T18:40:41Z</time>
      </trkpt>
      <trkpt lat="44.80414" lon="0.16108">
        <ele>66.486</ele>
        <time>2019-04-11T18:40:21Z</time>
      </trkpt>
      <trkpt lat="44.80403" lon="0.16199">
        <ele>60.808</ele>
        <time>2019-04-11T18:40:01Z</time>
      </trkpt>
      <trkpt lat="44.80362" lon="0.16173">
        <ele>60.821</ele>
        <time>2019-04-11T18:39:41Z</time>
      </trkpt>
      <trkpt lat="44.80294" lon="0.16347">
        <ele>44.401</ele>
        <time>2019-04-11T18:39:21Z</time>
      </trkpt>
      <trkpt lat="44.80253" lon="0.16354">
        <ele>44.239</ele>
        <time>2019-04-11T18:39:01Z</time>
      </trkpt>
      <trkpt lat="44.80221" lon="0.16427">
        <ele>38.032</ele>
        <time>2019-04-11T18:38:41Z</time>
      </trkpt>
      <trkpt lat="44.80274" lon="0.16429">
        <ele>37.884</ele>
        <time>2019-04-11T18:38:21Z</time>
      </trkpt>
      <trkpt lat="44.80351" lon="0.16481">
        <ele>38.349</ele>
        <time>2019-04-11T18:38:01Z</time>
      </trkpt>
      <trkpt lat="44.80436" lon="0.16511">
        <ele>35.054</ele>
        <time>2019-04-11T18:37:41Z</time>
      </trkpt>
      <trkpt lat="44.8048" lon="0.16499">
        <ele>37.863</ele>
        <time>2019-04-11T18:37:21Z</time>
      </trkpt>
      <trkpt lat="44.80613" lon="0.16359">
        <ele>38.174</ele>
        <time>2019-04-11T18:37:01Z</time>
      </trkpt>
      <trkpt lat="44.80722" lon="0.16382">
        <ele>37.578</ele>
        <time>2019-04-11T18:36:41Z</time>
      </trkpt>
      <trkpt lat="44.80833" lon="0.16389">
        <ele>38.126</ele>
        <time>2019-04-11T18:36:21Z</time>
      </trkpt>
      <trkpt lat="44.80929" lon="0.16434">
        <ele>34.808</ele>
        <time>2019-04-11T18:36:01Z</time>
      </trkpt>
      <trkpt lat="44.81011" lon="0.16445">
        <ele>33.607</ele>
        <time>2019-04-11T18:35:41Z</time>
      </trkpt>
      <trkpt lat="44.81282" lon="0.16392">
        <ele>31.361</ele>
        <time>2019-04-11T18:35:21Z</time>
      </trkpt>
      <trkpt lat="44.81296" lon="0.16462">
        <ele>29.031</ele>
        <time>2019-04-11T18:35:01Z</time>
      </trkpt>
      <trkpt lat="44.81324" lon="0.16528">
        <ele>30.183</ele>
        <time>2019-04-11T18:34:41Z</time>
      </trkpt>
      <trkpt lat="44.81335" lon="0.1657">
        <ele>32.315</ele>
        <time>2019-04-11T18:34:21Z</time>
      </trkpt>
      <trkpt lat="44.81308" lon="0.16664">
        <ele>37.18</ele>
        <time>2019-04-11T18:34:01Z</time>
      </trkpt>
      <trkpt lat="44.81339" lon="0.1668">
        <ele>41.945</ele>
        <time>2019-04-11T18:33:41Z</time>
      </trkpt>
      <trkpt lat="44.81345" lon="0.16727">
        <ele>45.464</ele>
        <time>2019-04-11T18:33:21Z</time>
      </trkpt>
      <trkpt lat="44.81342" lon="0.16821">
        <ele>49.735</ele>
        <time>2019-04-11T18:33:01Z</time>
      </trkpt>
      <trkpt lat="44.81279" lon="0.16962">
        <ele>56.719</ele>
        <time>2019-04-11T18:32:41Z</time>
      </trkpt>
      <trkpt lat="44.81271" lon="0.17281">
        <ele>72.577</ele>
        <time>2019-04-11T18:32:21Z</time>
      </trkpt>
      <trkpt lat="44.81259" lon="0.17551">
        <ele>81.508</ele>
        <time>2019-04-11T18:32:01Z</time>
      </trkpt>
      <trkpt lat="44.81232" lon="0.17673">
        <ele>86.022</ele>
        <time>2019-04-11T18:31:41Z</time>
      </trkpt>
      <trkpt lat="44.81131" lon="0.17879">
        <ele>94.602</ele>
        <time>2019-04-11T18:31:21Z</time>
      </trkpt>
      <trkpt lat="44.81076" lon="0.1798">
        <ele>96.149</ele>
        <time>2019-04-11T18:31:01Z</time>
      </trkpt>
      <trkpt lat="44.81098" lon="0.18029">
        <ele>98.468</ele>
        <time>2019-04-11T18:30:41Z</time>
      </trkpt>
      <trkpt lat="44.81149" lon="0.18222">
        <ele>96.16</ele>
        <time>2019-04-11T18:30:21Z</time>
      </trkpt>
      <trkpt lat="44.81193" lon="0.18177">
        <ele>96.145</ele>
        <time>2019-04-11T18:30:01Z</time>
      </trkpt>
      <trkpt lat="44.81303" lon="0.18104">
        <ele>97.26</ele>
        <time>2019-04-11T18:29:41Z</time>
      </trkpt>
      <trkpt lat="44.81438" lon="0.18123">
        <ele>100.459</ele>
        <time>2019-04-11T18:29:21Z</time>
      </trkpt>
      <trkpt lat="44.81466" lon="0.18165">
        <ele>101.82</ele>
        <time>2019-04-11T18:29:01Z</time>
      </trkpt>
      <trkpt lat="44.81523" lon="0.18186">
        <ele>105.834</ele>
        <time>2019-04-11T18:28:41Z</time>
      </trkpt>
      <trkpt lat="44.81542" lon="0.18184">
        <ele>106.252</ele>
        <time>2019-04-11T18:28:21Z</time>
      </trkpt>
      <trkpt lat="44.81583" lon="0.18205">
        <ele>107.008</ele>
        <time>2019-04-11T18:28:01Z</time>
      </trkpt>
      <trkpt lat="44.8164" lon="0.18174">
        <ele>103.525</ele>
        <time>2019-04-11T18:27:41Z</time>
      </trkpt>
      <trkpt lat="44.81637" lon="0.18158">
        <ele>102.023</ele>
        <time>2019-04-11T18:27:21Z</time>
      </trkpt>
      <trkpt lat="44.81764" lon="0.18123">
        <ele>101.297</ele>
        <time>2019-04-11T18:27:01Z</time>
      </trkpt>
      <trkpt lat="44.81798" lon="0.18104">
        <ele>101.781</ele>
        <time>2019-04-11T18:26:41Z</time>
      </trkpt>
      <trkpt lat="44.81855" lon="0.18085">
        <ele>104.043</ele>
        <time>2019-04-11T18:26:21Z</time>
      </trkpt>
      <trkpt lat="44.81912" lon="0.18109">
        <ele>105.518</ele>
        <time>2019-04-11T18:26:01Z</time>
      </trkpt>
      <trkpt lat="44.81926" lon="0.18133">
        <ele>106.763</ele>
        <time>2019-04-11T18:25:41Z</time>
      </trkpt>
      <trkpt lat="44.82039" lon="0.18231">
        <ele>102.842</ele>
        <time>2019-04-11T18:25:21Z</time>
      </trkpt>
      <trkpt lat="44.81999" lon="0.18372">
        <ele>94.783</ele>
        <time>2019-04-11T18:25:01Z</time>
      </trkpt>
      <trkpt lat="44.8192" lon="0.18545">
        <ele>79.877</ele>
        <time>2019-04-11T18:24:41Z</time>
      </trkpt>
      <trkpt lat="44.81837" lon="0.18635">
        <ele>76.825</ele>
        <time>2019-04-11T18:24:21Z</time>
      </trkpt>
      <trkpt lat="44.81782" lon="0.18644">
        <ele>77.508</ele>
        <time>2019-04-11T18:24:01Z</time>
      </trkpt>
      <trkpt lat="44.81732" lon="0.18714">
        <ele>76.905</ele>
        <time>2019-04-11T18:23:41Z</time>
      </trkpt>
      <trkpt lat="44.81743" lon="0.18754">
        <ele>73.941</ele>
        <time>2019-04-11T18:23:21Z</time>
      </trkpt>
      <trkpt lat="44.81721" lon="0.18852">
        <ele>64.221</ele>
        <time>2019-04-11T18:23:01Z</time>
      </trkpt>
      <trkpt lat="44.81769" lon="0.19097">
        <ele>50.468</ele>
        <time>2019-04-11T18:22:41Z</time>
      </trkpt>
      <trkpt lat="44.81778" lon="0.19256">
        <ele>37.55</ele>
        <time>2019-04-11T18:22:21Z</time>
      </trkpt>
      <trkpt lat="44.81821" lon="0.19359">
        <ele>34.325</ele>
        <time>2019-04-11T18:22:01Z</time>
      </trkpt>
      <trkpt lat="44.81895" lon="0.19421">
        <ele>22.51</ele>
        <time>2019-04-11T18:21:41Z</time>
      </trkpt>
      <trkpt lat="44.81934" lon="0.19408">
        <ele>19.469</ele>
        <time>2019-04-11T18:21:21Z</time>
      </trkpt>
      <trkpt lat="44.82007" lon="0.19397">
        <ele>18.34</ele>
        <time>2019-04-11T18:21:01Z</time>
      </trkpt>
      <trkpt lat="44.82086" lon="0.19421">
        <ele>16.764</ele>
        <time>2019-04-11T18:20:41Z</time>
      </trkpt>
      <trkpt lat="44.82548" lon="0.19838">
        <ele>16.6</ele>
      </trkpt>
      <trkpt lat="44.83071" lon="0.20296">
        <ele>17</ele>
      </trkpt>
      <trkpt lat="44.8354" lon="0.20722">
        <ele>17</ele>
      </trkpt>
      <trkpt lat="44.8407" lon="0.21187">
        <ele>18.922</ele>
        <time>2019-04-11T18:20:21Z</time>
      </trkpt>
    </trkseg>
  </trk>
</gpx>